createdAt,value
2019-01-30T00:01:28.530Z,16.55
2019-01-30T00:04:01.218Z,16.56
2019-01-30T00:06:33.448Z,16.54
2019-01-30T00:09:07.297Z,16.52
2019-01-30T00:11:39.492Z,16.54
2019-01-30T00:14:11.606Z,16.51
2019-01-30T00:16:43.787Z,16.53
2019-01-30T00:19:15.932Z,16.52
2019-01-30T00:21:48.231Z,16.51
2019-01-30T00:24:20.431Z,16.51
2019-01-30T00:26:52.539Z,16.49
2019-01-30T00:29:24.644Z,16.49
2019-01-30T00:31:56.790Z,16.45
2019-01-30T00:34:29.369Z,16.48
2019-01-30T00:37:01.618Z,16.48
2019-01-30T00:39:33.707Z,16.45
2019-01-30T00:42:05.971Z,16.44
2019-01-30T00:44:38.242Z,16.43
2019-01-30T00:47:15.781Z,16.45
2019-01-30T00:49:44.190Z,16.42
2019-01-30T00:52:16.364Z,16.40
2019-01-30T00:54:49.739Z,16.42
2019-01-30T00:57:21.926Z,16.37
2019-01-30T00:59:54.141Z,16.39
2019-01-30T01:02:26.365Z,16.38
2019-01-30T01:04:58.675Z,16.37
2019-01-30T01:07:31.779Z,16.35
2019-01-30T01:10:04.390Z,16.32
2019-01-30T01:12:36.714Z,16.32
2019-01-30T01:15:09.237Z,16.30
2019-01-30T01:17:41.450Z,16.32
2019-01-30T01:20:14.303Z,16.28
2019-01-30T01:22:46.438Z,16.28
2019-01-30T01:25:18.849Z,16.28
2019-01-30T01:27:50.938Z,16.25
2019-01-30T01:30:25.822Z,16.26
2019-01-30T01:32:58.060Z,16.28
2019-01-30T01:35:31.682Z,16.24
2019-01-30T01:38:03.772Z,16.25
2019-01-30T01:40:36.440Z,16.23
2019-01-30T01:43:08.601Z,16.25
2019-01-30T01:45:41.147Z,16.24
2019-01-30T01:48:13.360Z,16.19
2019-01-30T01:50:45.537Z,16.19
2019-01-30T01:53:17.664Z,16.22
2019-01-30T01:55:49.749Z,16.21
2019-01-30T01:58:22.092Z,16.19
2019-01-30T02:00:54.203Z,16.23
2019-01-30T02:03:26.235Z,16.23
2019-01-30T02:05:58.486Z,16.19
2019-01-30T02:08:30.723Z,16.21
2019-01-30T02:11:02.944Z,16.20
2019-01-30T02:13:35.097Z,16.23
2019-01-30T02:16:07.266Z,16.22
2019-01-30T02:18:39.439Z,16.22
2019-01-30T02:21:11.617Z,16.23
2019-01-30T02:23:43.791Z,16.22
2019-01-30T02:26:15.948Z,16.20
2019-01-30T02:28:48.099Z,16.20
2019-01-30T02:31:20.383Z,16.19
2019-01-30T02:33:52.449Z,16.19
2019-01-30T02:36:24.635Z,16.22
2019-01-30T02:38:56.763Z,16.21
2019-01-30T02:41:28.954Z,16.21
2019-01-30T02:44:01.092Z,16.21
2019-01-30T02:46:33.304Z,16.20
2019-01-30T02:49:05.478Z,16.19
2019-01-30T02:51:37.565Z,16.19
2019-01-30T02:54:09.680Z,16.19
2019-01-30T02:56:42.853Z,16.20
2019-01-30T02:59:15.098Z,16.20
2019-01-30T03:01:56.924Z,16.20
2019-01-30T03:04:29.184Z,16.17
2019-01-30T03:07:01.256Z,16.23
2019-01-30T03:09:33.532Z,16.29
2019-01-30T03:12:05.784Z,16.33
2019-01-30T03:14:37.733Z,16.28
2019-01-30T03:17:09.957Z,16.20
2019-01-30T03:19:42.085Z,16.17
2019-01-30T03:22:14.238Z,16.13
2019-01-30T03:24:46.563Z,16.13
2019-01-30T03:27:18.923Z,16.14
2019-01-30T03:29:51.094Z,16.14
2019-01-30T03:32:23.484Z,16.11
2019-01-30T03:34:55.613Z,16.12
2019-01-30T03:37:27.792Z,16.12
2019-01-30T03:40:00.240Z,16.09
2019-01-30T03:42:32.554Z,16.08
2019-01-30T03:45:04.949Z,16.10
2019-01-30T03:47:37.211Z,16.08
2019-01-30T03:50:10.019Z,16.07
2019-01-30T03:52:44.566Z,16.08
2019-01-30T03:55:17.022Z,16.07
2019-01-30T03:57:49.315Z,16.02
2019-01-30T04:00:22.454Z,16.06
2019-01-30T04:02:54.592Z,16.06
2019-01-30T04:05:27.775Z,16.05
2019-01-30T04:08:00.093Z,16.02
2019-01-30T04:10:32.302Z,16.02
2019-01-30T04:13:04.587Z,16.02
2019-01-30T04:15:37.147Z,16.03
2019-01-30T04:18:09.307Z,16.02
2019-01-30T04:20:41.366Z,15.99
2019-01-30T04:23:13.897Z,15.95
2019-01-30T04:25:46.247Z,15.97
2019-01-30T04:28:19.139Z,16.09
2019-01-30T04:30:51.398Z,16.13
2019-01-30T04:33:23.586Z,16.01
2019-01-30T04:35:56.107Z,15.93
2019-01-30T04:38:28.247Z,15.93
2019-01-30T04:41:01.513Z,15.95
2019-01-30T04:43:34.832Z,15.97
2019-01-30T04:46:07.077Z,15.89
2019-01-30T04:48:39.363Z,15.84
2019-01-30T04:51:11.607Z,15.92
2019-01-30T04:53:44.940Z,15.94
2019-01-30T04:56:17.355Z,15.94
2019-01-30T04:58:49.720Z,15.93
2019-01-30T05:01:22.218Z,15.92
2019-01-30T05:03:54.481Z,15.91
2019-01-30T05:06:26.869Z,15.91
2019-01-30T05:08:59.255Z,15.91
2019-01-30T05:11:31.790Z,15.91
2019-01-30T05:14:03.885Z,15.92
2019-01-30T05:16:36.225Z,15.89
2019-01-30T05:19:08.800Z,15.87
2019-01-30T05:21:40.942Z,15.99
2019-01-30T05:24:13.299Z,15.98
2019-01-30T05:26:45.508Z,16.09
2019-01-30T05:29:18.271Z,16.03
2019-01-30T05:32:00.933Z,15.88
2019-01-30T05:34:25.372Z,15.85
2019-01-30T05:36:57.732Z,15.84
2019-01-30T05:39:30.006Z,15.83
2019-01-30T05:42:02.368Z,15.87
2019-01-30T05:44:34.566Z,15.88
2019-01-30T05:47:06.965Z,15.84
2019-01-30T05:49:39.180Z,15.80
2019-01-30T05:52:11.435Z,15.78
2019-01-30T05:54:43.715Z,15.79
2019-01-30T05:57:15.994Z,15.76
2019-01-30T05:59:48.324Z,15.77
2019-01-30T06:02:20.606Z,15.77
2019-01-30T06:04:52.793Z,15.76
2019-01-30T06:07:25.157Z,15.80
2019-01-30T06:09:57.248Z,15.81
2019-01-30T06:12:29.492Z,15.79
2019-01-30T06:15:01.548Z,15.79
2019-01-30T06:17:33.824Z,15.78
2019-01-30T06:20:06.228Z,15.78
2019-01-30T06:22:38.602Z,15.81
2019-01-30T06:25:10.958Z,15.85
2019-01-30T06:27:43.279Z,15.87
2019-01-30T06:30:16.001Z,15.89
2019-01-30T06:32:48.124Z,15.87
2019-01-30T06:35:20.398Z,15.87
2019-01-30T06:37:52.515Z,15.89
2019-01-30T06:40:25.806Z,15.88
2019-01-30T06:42:57.889Z,15.87
2019-01-30T06:45:30.179Z,15.88
2019-01-30T06:48:02.651Z,15.92
2019-01-30T06:50:37.013Z,15.90
2019-01-30T06:53:09.216Z,15.94
2019-01-30T06:55:41.463Z,15.95
2019-01-30T06:58:13.682Z,15.91
2019-01-30T07:00:45.969Z,15.93
2019-01-30T07:03:18.177Z,15.90
2019-01-30T07:05:50.380Z,15.93
2019-01-30T07:08:22.665Z,15.93
2019-01-30T07:10:54.734Z,15.92
2019-01-30T07:13:27.065Z,15.89
2019-01-30T07:15:59.230Z,15.90
2019-01-30T07:18:31.565Z,15.88
2019-01-30T07:21:03.622Z,15.88
2019-01-30T07:23:36.103Z,15.98
2019-01-30T07:26:08.295Z,16.00
2019-01-30T07:28:40.419Z,15.98
2019-01-30T07:31:12.700Z,15.97
2019-01-30T07:33:44.863Z,15.92
2019-01-30T07:36:17.028Z,15.90
2019-01-30T07:38:49.245Z,15.90
2019-01-30T07:41:21.532Z,15.89
2019-01-30T07:43:53.786Z,15.89
2019-01-30T07:46:25.973Z,15.93
2019-01-30T07:48:58.084Z,15.90
2019-01-30T07:51:30.351Z,15.88
2019-01-30T07:54:02.400Z,15.88
2019-01-30T07:56:34.659Z,15.88
2019-01-30T07:59:06.748Z,15.89
2019-01-30T08:01:38.900Z,15.90
2019-01-30T08:04:11.075Z,15.90
2019-01-30T08:06:43.229Z,15.89
2019-01-30T08:09:15.422Z,15.89
2019-01-30T08:11:47.621Z,15.90
2019-01-30T08:14:19.782Z,15.94
2019-01-30T08:16:52.004Z,15.95
2019-01-30T08:19:24.289Z,15.96
2019-01-30T08:21:56.400Z,15.95
2019-01-30T08:24:28.844Z,15.98
2019-01-30T08:27:01.335Z,15.98
2019-01-30T08:29:33.566Z,15.96
2019-01-30T08:32:06.346Z,15.97
2019-01-30T08:34:38.513Z,15.98
2019-01-30T08:37:10.649Z,15.98
2019-01-30T08:39:42.828Z,15.97
2019-01-30T08:42:15.007Z,15.99
2019-01-30T08:44:47.428Z,15.99
2019-01-30T08:47:19.560Z,15.98
2019-01-30T08:49:51.816Z,15.98
2019-01-30T08:52:23.867Z,16.02
2019-01-30T08:54:56.227Z,15.99
2019-01-30T08:57:28.443Z,16.01
2019-01-30T09:00:00.564Z,15.99
2019-01-30T09:02:33.712Z,15.99
2019-01-30T09:05:05.946Z,16.00
2019-01-30T09:07:44.362Z,16.01
2019-01-30T09:10:13.637Z,16.04
2019-01-30T09:12:45.973Z,16.03
2019-01-30T09:15:18.937Z,16.02
2019-01-30T09:17:51.064Z,16.05
2019-01-30T09:20:23.749Z,16.06
2019-01-30T09:22:55.868Z,16.15
2019-01-30T09:25:28.619Z,16.06
2019-01-30T09:28:01.104Z,16.02
2019-01-30T09:30:40.178Z,15.99
2019-01-30T09:33:12.825Z,16.00
2019-01-30T09:35:44.993Z,15.99
2019-01-30T09:38:17.224Z,16.00
2019-01-30T09:40:49.615Z,16.00
2019-01-30T09:43:21.772Z,16.00
2019-01-30T09:45:54.940Z,16.00
2019-01-30T09:48:27.352Z,16.01
2019-01-30T09:50:59.571Z,16.03
2019-01-30T09:53:31.727Z,16.01
2019-01-30T09:56:03.974Z,16.01
2019-01-30T09:58:36.123Z,16.02
2019-01-30T10:01:08.298Z,16.01
2019-01-30T10:03:40.507Z,16.02
2019-01-30T10:06:12.816Z,16.03
2019-01-30T10:08:45.071Z,16.05
2019-01-30T10:11:17.344Z,16.05
2019-01-30T10:13:49.734Z,16.05
2019-01-30T10:16:22.018Z,16.06
2019-01-30T10:18:54.289Z,16.05
2019-01-30T10:21:26.399Z,16.05
2019-01-30T10:23:58.583Z,16.06
2019-01-30T10:26:30.874Z,16.07
2019-01-30T10:29:03.076Z,16.07
2019-01-30T10:31:35.548Z,16.06
2019-01-30T10:34:07.981Z,16.07
2019-01-30T10:36:40.486Z,16.08
2019-01-30T10:39:13.113Z,16.08
2019-01-30T10:41:45.616Z,16.08
2019-01-30T10:44:18.033Z,16.10
2019-01-30T10:46:50.309Z,16.09
2019-01-30T10:49:23.940Z,16.09
2019-01-30T10:51:57.171Z,16.10
2019-01-30T10:54:29.552Z,16.11
2019-01-30T10:57:01.666Z,16.11
2019-01-30T10:59:33.965Z,16.12
2019-01-30T11:02:06.251Z,16.14
2019-01-30T11:04:38.510Z,16.13
2019-01-30T11:07:10.774Z,16.13
2019-01-30T11:09:42.979Z,16.15
2019-01-30T11:12:15.305Z,16.15
2019-01-30T11:14:48.759Z,16.16
2019-01-30T11:17:20.825Z,16.17
2019-01-30T11:19:53.268Z,16.17
2019-01-30T11:22:25.396Z,16.18
2019-01-30T11:24:57.796Z,16.18
2019-01-30T11:27:29.936Z,16.19
2019-01-30T11:30:02.319Z,16.19
2019-01-30T11:32:34.631Z,16.20
2019-01-30T11:35:07.111Z,16.22
2019-01-30T11:37:39.287Z,16.21
2019-01-30T11:40:12.384Z,16.22
2019-01-30T11:42:44.622Z,16.24
2019-01-30T11:45:20.927Z,16.23
2019-01-30T11:47:53.308Z,16.24
2019-01-30T11:50:25.911Z,16.24
2019-01-30T11:52:58.461Z,16.25
2019-01-30T11:55:30.835Z,16.25
2019-01-30T11:58:03.282Z,16.25
2019-01-30T12:00:39.957Z,16.27
2019-01-30T12:03:12.413Z,16.27
2019-01-30T12:05:45.256Z,16.28
2019-01-30T12:08:17.854Z,16.28
2019-01-30T12:10:53.168Z,16.29
2019-01-30T12:13:25.413Z,16.32
2019-01-30T12:15:57.884Z,16.34
2019-01-30T12:18:30.478Z,16.34
2019-01-30T12:21:02.668Z,16.44
2019-01-30T12:23:35.008Z,16.39
2019-01-30T12:26:07.066Z,16.40
2019-01-30T12:28:39.590Z,16.39
2019-01-30T12:31:12.329Z,16.37
2019-01-30T12:33:45.593Z,16.38
2019-01-30T12:36:17.888Z,16.40
2019-01-30T12:38:49.952Z,16.43
2019-01-30T12:41:22.424Z,16.43
2019-01-30T12:43:54.548Z,16.42
2019-01-30T12:46:27.028Z,16.41
2019-01-30T12:48:58.984Z,16.42
2019-01-30T12:51:31.331Z,16.47
2019-01-30T12:54:03.373Z,16.49
2019-01-30T12:56:35.700Z,16.54
2019-01-30T12:59:07.909Z,16.53
2019-01-30T13:01:40.537Z,16.51
2019-01-30T13:04:12.741Z,16.50
2019-01-30T13:06:46.150Z,16.50
2019-01-30T13:09:18.267Z,16.51
2019-01-30T13:11:50.509Z,16.51
2019-01-30T13:14:22.656Z,16.52
2019-01-30T13:16:54.710Z,16.52
2019-01-30T13:19:28.141Z,16.52
2019-01-30T13:22:00.273Z,16.52
2019-01-30T13:24:33.747Z,16.53
2019-01-30T13:27:05.795Z,16.53
2019-01-30T13:29:38.352Z,16.55
2019-01-30T13:32:11.237Z,16.55
2019-01-30T13:34:49.043Z,16.56
2019-01-30T13:37:17.588Z,16.55
2019-01-30T13:39:49.891Z,16.59
2019-01-30T13:42:22.127Z,16.60
2019-01-30T13:44:54.540Z,16.59
2019-01-30T13:47:26.746Z,16.57
2019-01-30T13:49:59.040Z,16.55
2019-01-30T13:52:31.159Z,16.55
2019-01-30T13:55:03.525Z,16.54
2019-01-30T13:57:35.991Z,16.55
2019-01-30T14:00:08.781Z,16.56
2019-01-30T14:02:41.045Z,16.55
2019-01-30T14:05:13.301Z,16.55
2019-01-30T14:07:45.802Z,16.56
2019-01-30T14:10:18.014Z,16.55
2019-01-30T14:12:50.468Z,16.69
2019-01-30T14:15:24.218Z,16.70
2019-01-30T14:17:56.474Z,16.64
2019-01-30T14:20:28.684Z,16.61
2019-01-30T14:23:01.136Z,16.60
2019-01-30T14:25:35.443Z,16.60
2019-01-30T14:28:07.545Z,16.59
2019-01-30T14:30:40.429Z,16.60
2019-01-30T14:33:12.878Z,16.61
2019-01-30T14:35:45.719Z,16.62
2019-01-30T14:38:17.862Z,16.62
2019-01-30T14:40:50.473Z,16.63
2019-01-30T14:43:22.530Z,16.65
2019-01-30T14:45:55.236Z,16.64
2019-01-30T14:48:27.276Z,16.67
2019-01-30T14:50:59.626Z,16.66
2019-01-30T14:53:31.887Z,16.67
2019-01-30T14:56:03.966Z,16.68
2019-01-30T14:58:36.335Z,16.67
2019-01-30T15:01:08.524Z,16.69
2019-01-30T15:03:40.676Z,16.71
2019-01-30T15:06:12.895Z,16.69
2019-01-30T15:08:44.996Z,16.70
2019-01-30T15:11:17.119Z,16.70
2019-01-30T15:13:49.235Z,16.68
2019-01-30T15:16:21.363Z,16.69
2019-01-30T15:18:53.602Z,16.68
2019-01-30T15:21:26.704Z,16.69
2019-01-30T15:23:58.896Z,16.69
2019-01-30T15:26:32.119Z,16.70
2019-01-30T15:29:04.291Z,16.68
2019-01-30T15:31:36.460Z,16.68
2019-01-30T15:34:08.775Z,16.69
2019-01-30T15:36:41.042Z,16.68
2019-01-30T15:39:13.374Z,16.69
2019-01-30T15:41:45.379Z,16.69
2019-01-30T15:44:17.611Z,16.70
2019-01-30T15:46:49.736Z,16.70
2019-01-30T15:49:21.943Z,16.70
2019-01-30T15:51:54.391Z,16.70
2019-01-30T15:54:30.808Z,16.69
2019-01-30T15:57:03.088Z,16.71
2019-01-30T15:59:35.457Z,16.71
2019-01-30T16:02:07.639Z,16.71
2019-01-30T16:04:40.970Z,16.71
2019-01-30T16:07:13.453Z,16.71
2019-01-30T16:09:45.781Z,16.70
2019-01-30T16:12:18.094Z,16.71
2019-01-30T16:14:50.475Z,16.71
2019-01-30T16:17:23.682Z,16.70
2019-01-30T16:19:55.882Z,16.70
2019-01-30T16:22:28.402Z,16.71
2019-01-30T16:25:08.875Z,16.70
2019-01-30T16:27:35.571Z,16.75
2019-01-30T16:30:08.568Z,16.83
2019-01-30T16:32:41.941Z,17.28
2019-01-30T16:35:15.379Z,17.78
2019-01-30T16:37:47.487Z,17.96
2019-01-30T16:40:19.711Z,18.46
2019-01-30T16:42:54.324Z,18.23
2019-01-30T16:45:26.519Z,18.19
2019-01-30T16:47:58.934Z,18.27
2019-01-30T16:50:31.098Z,18.31
2019-01-30T16:53:03.646Z,18.42
2019-01-30T16:55:37.828Z,18.52
2019-01-30T16:58:11.036Z,18.50
2019-01-30T17:00:43.305Z,18.48
2019-01-30T17:03:15.613Z,18.59
2019-01-30T17:05:47.784Z,18.67
2019-01-30T17:08:20.157Z,18.75
2019-01-30T17:10:52.487Z,18.73
2019-01-30T17:13:24.855Z,18.79
2019-01-30T17:15:57.022Z,18.81
2019-01-30T17:18:29.336Z,18.91
2019-01-30T17:21:01.459Z,18.94
2019-01-30T17:23:33.726Z,18.95
2019-01-30T17:26:05.945Z,18.99
2019-01-30T17:28:38.246Z,18.92
2019-01-30T17:31:30.551Z,18.89
2019-01-30T17:34:02.787Z,19.00
2019-01-30T17:36:34.992Z,18.96
2019-01-30T17:39:09.067Z,18.96
2019-01-30T17:41:41.315Z,18.94
2019-01-30T17:44:13.473Z,18.90
2019-01-30T17:46:45.722Z,18.91
2019-01-30T17:49:19.172Z,18.93
2019-01-30T17:51:53.279Z,18.94
2019-01-30T17:54:25.511Z,18.95
2019-01-30T17:56:57.883Z,18.95
2019-01-30T17:59:31.000Z,18.99
2019-01-30T18:02:03.307Z,19.00
2019-01-30T18:04:35.523Z,18.98
2019-01-30T18:07:07.785Z,19.02
2019-01-30T18:09:40.016Z,18.98
2019-01-30T18:12:12.327Z,19.03
2019-01-30T18:14:44.561Z,19.03
2019-01-30T18:17:16.862Z,19.05
2019-01-30T18:19:49.485Z,19.08
2019-01-30T18:22:21.756Z,19.02
2019-01-30T18:24:53.902Z,19.06
2019-01-30T18:27:26.043Z,19.11
2019-01-30T18:29:58.452Z,19.14
2019-01-30T18:32:30.996Z,19.11
2019-01-30T18:35:03.155Z,19.12
2019-01-30T18:37:36.461Z,19.12
2019-01-30T18:40:09.568Z,19.18
2019-01-30T18:42:41.790Z,19.00
2019-01-30T18:45:15.001Z,19.22
2019-01-30T18:47:47.346Z,19.35
2019-01-30T18:50:20.560Z,19.41
2019-01-30T18:52:52.954Z,19.46
2019-01-30T18:55:25.314Z,19.49
2019-01-30T18:57:57.642Z,19.50
2019-01-30T19:00:33.350Z,19.50
2019-01-30T19:03:06.173Z,19.50
2019-01-30T19:05:38.278Z,19.46
2019-01-30T19:08:10.385Z,19.45
2019-01-30T19:10:42.458Z,19.37
2019-01-30T19:13:14.774Z,19.32
2019-01-30T19:15:47.509Z,19.28
2019-01-30T19:18:19.806Z,19.27
2019-01-30T19:20:52.122Z,19.26
2019-01-30T19:23:24.504Z,19.26
2019-01-30T19:25:56.726Z,19.25
2019-01-30T19:28:28.869Z,19.26
2019-01-30T19:31:01.028Z,19.27
2019-01-30T19:33:33.281Z,19.24
2019-01-30T19:36:05.387Z,19.19
2019-01-30T19:38:37.645Z,19.21
2019-01-30T19:41:09.945Z,19.19
2019-01-30T19:43:42.071Z,19.22
2019-01-30T19:46:14.243Z,19.22
2019-01-30T19:48:46.707Z,19.23
2019-01-30T19:51:18.786Z,19.21
2019-01-30T19:53:51.141Z,19.24
2019-01-30T19:56:23.849Z,19.27
2019-01-30T19:58:56.242Z,19.19
2019-01-30T20:01:35.948Z,19.17
2019-01-30T20:04:02.461Z,18.70
2019-01-30T20:06:35.581Z,18.43
2019-01-30T20:09:10.708Z,18.30
2019-01-30T20:11:42.903Z,18.22
2019-01-30T20:14:15.208Z,18.14
2019-01-30T20:16:47.446Z,18.07
2019-01-30T20:19:19.892Z,18.03
2019-01-30T20:21:52.287Z,17.98
2019-01-30T20:24:24.487Z,17.97
2019-01-30T20:26:57.258Z,17.92
2019-01-30T20:29:29.619Z,17.90
2019-01-30T20:32:01.750Z,17.89
2019-01-30T20:34:33.944Z,17.84
2019-01-30T20:37:06.204Z,17.84
2019-01-30T20:39:38.547Z,17.81
2019-01-30T20:42:10.772Z,17.80
2019-01-30T20:44:43.069Z,17.76
2019-01-30T20:47:15.337Z,17.73
2019-01-30T20:49:50.535Z,17.72
2019-01-30T20:52:21.602Z,17.72
2019-01-30T20:54:59.823Z,17.71
2019-01-30T20:57:28.346Z,17.68
2019-01-30T21:00:00.729Z,17.66
2019-01-30T21:02:33.999Z,17.64
2019-01-30T21:05:06.470Z,17.64
2019-01-30T21:07:38.636Z,17.64
2019-01-30T21:10:13.292Z,17.65
2019-01-30T21:12:45.506Z,17.64
2019-01-30T21:15:17.991Z,17.63
2019-01-30T21:17:50.371Z,17.62
2019-01-30T21:20:22.850Z,17.60
2019-01-30T21:22:55.124Z,17.59
2019-01-30T21:25:27.472Z,17.58
2019-01-30T21:27:59.766Z,17.56
2019-01-30T21:30:33.195Z,17.57
2019-01-30T21:33:05.519Z,17.55
2019-01-30T21:35:37.887Z,17.54
2019-01-30T21:38:10.139Z,17.54
2019-01-30T21:40:42.417Z,17.52
2019-01-30T21:43:14.768Z,17.51
2019-01-30T21:45:47.153Z,17.52
2019-01-30T21:48:19.606Z,17.51
2019-01-30T21:50:52.544Z,17.49
2019-01-30T21:53:24.840Z,17.48
2019-01-30T21:55:57.426Z,17.49
2019-01-30T21:58:29.600Z,17.47
2019-01-30T22:01:01.922Z,17.46
2019-01-30T22:03:34.063Z,17.47
2019-01-30T22:06:06.607Z,17.44
2019-01-30T22:08:38.824Z,17.45
2019-01-30T22:11:11.229Z,17.44
2019-01-30T22:13:43.296Z,17.43
2019-01-30T22:16:15.655Z,17.44
2019-01-30T22:18:47.861Z,17.40
2019-01-30T22:21:20.094Z,17.40
2019-01-30T22:23:52.286Z,17.38
2019-01-30T22:26:24.582Z,17.39
2019-01-30T22:28:56.785Z,17.39
2019-01-30T22:31:28.873Z,17.37
2019-01-30T22:34:01.133Z,17.38
2019-01-30T22:36:33.219Z,17.38
2019-01-30T22:39:05.613Z,17.38
2019-01-30T22:41:37.773Z,17.40
2019-01-30T22:44:10.072Z,17.37
2019-01-30T22:46:43.268Z,17.36
2019-01-30T22:49:15.552Z,17.35
2019-01-30T22:51:47.589Z,17.35
2019-01-30T22:54:20.092Z,17.32
2019-01-30T22:56:52.300Z,17.34
2019-01-30T22:59:24.636Z,17.35
2019-01-30T23:02:01.453Z,17.33
2019-01-30T23:04:37.852Z,17.34
2019-01-30T23:07:21.432Z,17.33
2019-01-30T23:10:12.382Z,17.32
2019-01-30T23:13:02.991Z,17.28
2019-01-30T23:15:44.948Z,17.30
2019-01-30T23:18:38.493Z,17.28
2019-01-30T23:21:16.364Z,17.29
2019-01-30T23:24:25.410Z,17.26
2019-01-30T23:27:29.270Z,17.23
2019-01-30T23:30:22.706Z,17.26
2019-01-30T23:33:16.266Z,17.25
2019-01-30T23:36:16.012Z,17.22
2019-01-30T23:39:09.613Z,17.25
2019-01-30T23:41:47.770Z,17.24
2019-01-30T23:44:34.276Z,17.22
2019-01-30T23:47:30.809Z,17.21
2019-01-30T23:50:21.563Z,17.20
2019-01-30T23:53:04.270Z,17.18
2019-01-30T23:55:51.378Z,17.18
2019-01-30T23:58:29.251Z,17.19
